Time;durP1;ratioP1;P1;durP2;ratioP2;P2;SDS_P1;SDS_P2;PMS_P1;PMS_P2;Temp;Humidity;BMP_temperature;BMP_pressure;BME280_temperature;BME280_humidity;BME280_pressure;Samples;Min_cycle;Max_cycle;Signal;HPM_P1;HPM_P2
2023/07/01 00:00:08;;;;;;;0.40;0.40;;;;;;;16.67;74.24;96491.72;29395;214;63005;-58
2023/07/01 00:00:40;;;;;;;0.40;0.40;;;;;;;16.65;74.20;96496.72;29395;212;63009;-60
2023/07/01 00:01:12;;;;;;;0.40;0.40;;;;;;;16.65;74.20;96491.25;29394;304;64009;-57
2023/07/01 00:01:43;;;;;;;0.40;0.40;;;;;;;16.71;73.46;96489.88;29395;218;63009;-58
2023/07/01 00:02:15;;;;;;;0.40;0.40;;;;;;;16.72;73.29;96496.97;29395;208;63004;-61
2023/07/01 00:02:48;;;;;;;0.40;0.40;;;;;;;16.75;73.22;96490.81;29395;240;63009;-56
2023/07/01 00:03:20;;;;;;;0.40;0.40;;;;;;;16.76;73.12;96491.59;29395;241;63004;-59
2023/07/01 00:03:55;;;;;;;0.40;0.40;;;;;;;16.73;73.29;96482.13;29395;255;63008;-51
2023/07/01 00:04:27;;;;;;;0.40;0.40;;;;;;;16.71;73.66;96489.09;29395;264;63001;-50
2023/07/01 00:05:00;;;;;;;0.40;0.40;;;;;;;16.69;73.58;96494.91;29394;234;64014;-60
2023/07/01 00:05:32;;;;;;;0.40;0.40;;;;;;;16.65;73.84;96488.50;29395;225;63005;-50
2023/07/01 00:06:05;;;;;;;0.40;0.40;;;;;;;16.64;73.92;96489.66;29394;197;64013;-58
2023/07/01 00:06:37;;;;;;;0.37;0.37;;;;;;;16.63;74.03;96498.97;29395;286;63017;-61
2023/07/01 00:07:08;;;;;;;0.40;0.40;;;;;;;16.60;74.08;96488.72;29394;205;64013;-60
2023/07/01 00:07:39;;;;;;;0.40;0.40;;;;;;;16.58;74.47;96485.53;29395;235;63009;-60
2023/07/01 00:08:11;;;;;;;0.40;0.40;;;;;;;16.57;74.23;96489.41;29395;235;63009;-59
2023/07/01 00:08:45;;;;;;;0.40;0.40;;;;;;;16.56;74.30;96493.28;29395;267;63004;-59
2023/07/01 00:09:16;;;;;;;0.40;0.40;;;;;;;16.52;74.39;96492.38;29395;265;63019;-59
2023/07/01 00:09:51;;;;;;;0.40;0.40;;;;;;;16.53;74.55;96487.69;29395;203;63004;-59
2023/07/01 00:10:25;;;;;;;0.40;0.40;;;;;;;16.53;74.34;96483.00;29395;263;63018;-59
2023/07/01 00:11:01;;;;;;;0.40;0.40;;;;;;;16.51;74.26;96485.28;29395;275;63004;-58
2023/07/01 00:11:32;;;;;;;0.40;0.40;;;;;;;16.49;74.78;96486.78;29394;241;64013;-59
2023/07/01 00:12:05;;;;;;;0.40;0.40;;;;;;;16.46;74.90;96487.44;29395;254;63005;-59
2023/07/01 00:12:37;;;;;;;0.40;0.40;;;;;;;16.43;74.86;96480.72;29395;273;63009;-60
2023/07/01 00:13:08;;;;;;;0.40;0.40;;;;;;;16.41;74.50;96480.25;29395;218;63008;-50
2023/07/01 00:13:40;;;;;;;0.40;0.40;;;;;;;16.37;74.53;96490.28;29395;233;63009;-51
2023/07/01 00:14:11;;;;;;;0.40;0.40;;;;;;;16.36;74.76;96483.19;29395;206;63005;-57
2023/07/01 00:14:42;;;;;;;0.40;0.40;;;;;;;16.34;75.01;96485.47;29395;220;63009;-58
2023/07/01 00:15:13;;;;;;;0.40;0.40;;;;;;;16.34;75.35;96480.81;29395;211;63005;-59
2023/07/01 00:15:45;;;;;;;0.40;0.40;;;;;;;16.33;75.57;96484.69;29394;257;64013;-59
2023/07/01 00:16:17;;;;;;;0.40;0.40;;;;;;;16.33;75.26;96489.34;29395;229;63004;-58
2023/07/01 00:16:48;;;;;;;0.40;0.40;;;;;;;16.32;75.45;96479.53;29395;252;63009;-59
2023/07/01 00:17:21;;;;;;;0.40;0.40;;;;;;;16.31;75.28;96480.69;29395;216;63004;-59
2023/07/01 00:17:54;;;;;;;0.40;0.40;;;;;;;16.30;75.63;96476.34;29395;243;63009;-59
2023/07/01 00:18:26;;;;;;;0.40;0.40;;;;;;;16.28;75.80;96486.84;29395;247;63015;-59
2023/07/01 00:18:59;;;;;;;0.40;0.40;;;;;;;16.26;75.62;96483.66;29395;196;63008;-58
2023/07/01 00:19:32;;;;;;;0.40;0.40;;;;;;;16.24;76.12;96474.97;29394;219;64009;-60
2023/07/01 00:20:04;;;;;;;0.40;0.40;;;;;;;16.21;75.67;96481.13;29395;260;63009;-50
2023/07/01 00:20:35;;;;;;;0.40;0.40;;;;;;;16.21;76.24;96481.13;29395;263;63005;-60
2023/07/01 00:21:07;;;;;;;0.32;0.32;;;;;;;16.19;76.09;96483.41;29396;236;63009;-60
2023/07/01 00:21:40;;;;;;;0.40;0.40;;;;;;;16.18;76.25;96481.81;29395;244;63000;-51
2023/07/01 00:22:12;;;;;;;0.40;0.40;;;;;;;16.18;76.12;96484.53;29395;197;63009;-61
2023/07/01 00:22:43;;;;;;;0.40;0.40;;;;;;;16.17;76.16;96489.22;29395;216;63000;-60
2023/07/01 00:23:15;;;;;;;0.40;0.40;;;;;;;16.17;76.36;96483.75;29395;311;63009;-60
2023/07/01 00:23:46;;;;;;;0.40;0.40;;;;;;;16.17;76.61;96485.69;29395;222;63004;-58
2023/07/01 00:24:17;;;;;;;0.40;0.40;;;;;;;16.18;76.31;96487.28;29395;298;63009;-60
2023/07/01 00:24:49;;;;;;;0.40;0.40;;;;;;;16.17;76.29;96483.75;29394;251;64009;-60
2023/07/01 00:25:20;;;;;;;0.40;0.40;;;;;;;16.18;76.02;96482.59;29395;204;63009;-60
2023/07/01 00:25:53;;;;;;;0.88;0.88;;;;;;;16.21;76.00;96478.41;29394;196;64009;-60
2023/07/01 00:26:28;;;;;;;0.40;0.40;;;;;;;16.20;75.81;96480.34;29395;367;63008;-59
2023/07/01 00:27:02;;;;;;;0.40;0.40;;;;;;;16.20;75.84;96485.00;29396;306;63005;-59
2023/07/01 00:27:35;;;;;;;0.40;0.40;;;;;;;16.17;75.78;96480.22;29394;288;64014;-60
2023/07/01 00:28:06;;;;;;;0.40;0.40;;;;;;;16.14;76.09;96478.16;29395;228;63005;-60
2023/07/01 00:28:38;;;;;;;0.40;0.40;;;;;;;16.11;75.99;96481.56;29395;202;63009;-58
2023/07/01 00:29:16;;;;;;;0.45;0.45;;;;;;;16.09;75.94;96479.16;29395;199;63014;-58
2023/07/01 00:29:48;;;;;;;0.40;0.40;;;;;;;16.08;75.97;96483.03;29395;218;63009;-58
2023/07/01 00:30:19;;;;;;;0.40;0.40;;;;;;;16.09;76.27;96479.97;29395;222;63005;-59
2023/07/01 00:30:50;;;;;;;0.40;0.40;;;;;;;16.15;75.87;96474.28;29395;197;63009;-59
2023/07/01 00:31:27;;;;;;;0.40;0.40;;;;;;;16.18;75.76;96479.06;29395;221;63004;-61
2023/07/01 00:31:58;;;;;;;0.47;0.47;;;;;;;16.17;75.32;96481.00;29395;365;63009;-60
2023/07/01 00:32:33;;;;;;;0.40;0.40;;;;;;;16.15;75.63;96479.75;29394;204;64009;-60
2023/07/01 00:33:09;;;;;;;0.40;0.40;;;;;;;16.12;75.49;96477.69;29395;208;63009;-50
2023/07/01 00:33:41;;;;;;;0.40;0.40;;;;;;;16.08;76.14;96483.84;29395;207;63004;-60
2023/07/01 00:34:13;;;;;;;0.40;0.40;;;;;;;16.07;76.00;96482.22;29395;214;63008;-60
2023/07/01 00:34:45;;;;;;;0.40;0.40;;;;;;;16.05;76.09;96483.69;29395;227;63005;-61
2023/07/01 00:35:17;;;;;;;0.40;0.40;;;;;;;16.03;76.29;96491.44;29395;239;63009;-59
2023/07/01 00:35:48;;;;;;;0.40;0.40;;;;;;;16.02;76.93;96479.69;29395;209;63005;-50
2023/07/01 00:36:19;;;;;;;0.40;0.40;;;;;;;16.02;76.53;96484.38;29395;214;63009;-59
2023/07/01 00:36:55;;;;;;;0.40;0.40;;;;;;;16.01;76.80;96486.31;29395;252;63005;-62
2023/07/01 00:37:27;;;;;;;0.40;0.40;;;;;;;16.00;76.19;96481.97;29394;226;64013;-59
2023/07/01 00:37:59;;;;;;;0.40;0.40;;;;;;;15.98;76.56;96489.72;29395;247;63004;-56
2023/07/01 00:38:30;;;;;;;0.40;0.40;;;;;;;15.99;76.12;96480.37;29395;220;63025;-59
2023/07/01 00:39:03;;;;;;;0.40;0.40;;;;;;;15.96;75.98;96481.03;29395;265;63004;-59
2023/07/01 00:39:35;;;;;;;0.40;0.40;;;;;;;16.00;76.17;96476.50;29395;212;63009;-58
2023/07/01 00:40:07;;;;;;;0.40;0.40;;;;;;;16.03;76.01;96475.84;29395;218;63000;-59
2023/07/01 00:40:38;;;;;;;0.40;0.40;;;;;;;16.02;75.65;96476.97;29395;202;63008;-51
2023/07/01 00:41:11;;;;;;;0.40;0.40;;;;;;;16.02;75.67;96478.91;29395;221;63004;-51
2023/07/01 00:41:42;;;;;;;0.32;0.32;;;;;;;15.98;75.92;96478.78;29395;269;63018;-48
2023/07/01 00:42:16;;;;;;;0.40;0.40;;;;;;;15.98;75.99;96484.25;29395;202;63008;-58
2023/07/01 00:42:47;;;;;;;0.40;0.40;;;;;;;15.96;76.30;96477.50;29394;203;64013;-59
2023/07/01 00:43:19;;;;;;;0.40;0.40;;;;;;;15.96;76.09;96475.56;29395;202;63005;-60
2023/07/01 00:43:50;;;;;;;0.40;0.40;;;;;;;15.93;75.98;96476.28;29395;225;63009;-58
2023/07/01 00:44:25;;;;;;;0.40;0.40;;;;;;;15.93;76.17;96473.53;29395;292;63005;-58
2023/07/01 00:44:56;;;;;;;0.40;0.40;;;;;;;15.93;76.49;96475.47;29395;291;63009;-60
2023/07/01 00:45:29;;;;;;;0.40;0.40;;;;;;;15.91;76.53;96478.56;29395;320;63004;-59
2023/07/01 00:46:01;;;;;;;0.40;0.40;;;;;;;15.90;76.41;96479.69;29395;215;63017;-58
2023/07/01 00:46:33;;;;;;;0.40;0.40;;;;;;;15.89;76.77;96475.34;29395;206;63004;-59
2023/07/01 00:47:05;;;;;;;0.40;0.40;;;;;;;15.88;76.48;96476.47;29395;213;63009;-57
2023/07/01 00:47:41;;;;;;;0.40;0.40;;;;;;;15.87;76.68;96472.16;29395;197;63004;-50
2023/07/01 00:48:28;;;;;;;0.40;0.40;;;;;;;15.87;76.81;96476.81;29394;267;64013;-51
2023/07/01 00:49:00;;;;;;;0.43;0.43;;;;;;;15.88;76.76;96478.41;29395;224;63005;-59
2023/07/01 00:49:33;;;;;;;0.40;0.40;;;;;;;15.85;76.55;96471.69;29395;212;63009;-58
2023/07/01 00:50:10;;;;;;;0.40;0.40;;;;;;;15.87;76.36;96471.34;29395;227;63005;-59
2023/07/01 00:50:41;;;;;;;0.40;0.40;;;;;;;15.87;76.30;96474.88;29395;199;63009;-57
2023/07/01 00:51:13;;;;;;;0.40;0.40;;;;;;;15.85;76.68;96470.88;29394;214;64009;-58
2023/07/01 00:51:45;;;;;;;0.40;0.40;;;;;;;15.82;76.43;96469.63;29395;249;63009;-59
2023/07/01 00:52:17;;;;;;;0.40;0.40;;;;;;;15.80;76.56;96471.09;29395;234;63005;-57
2023/07/01 00:52:50;;;;;;;0.40;0.40;;;;;;;15.81;76.46;96468.03;29395;239;63009;-59
2023/07/01 00:53:22;;;;;;;0.40;0.40;;;;;;;15.80;76.62;96471.87;29395;233;63009;-60
2023/07/01 00:53:55;;;;;;;0.40;0.40;;;;;;;15.78;76.72;96468.69;29394;202;64013;-60
2023/07/01 00:54:29;;;;;;;0.40;0.40;;;;;;;15.78;76.68;96463.22;29394;204;64009;-59
2023/07/01 00:55:04;;;;;;;0.40;0.40;;;;;;;15.78;76.67;96468.69;29395;206;63009;-60
2023/07/01 00:55:35;;;;;;;0.40;0.40;;;;;;;15.77;77.03;96461.62;29395;202;63004;-59
2023/07/01 00:56:08;;;;;;;0.40;0.40;;;;;;;15.74;76.88;96468.56;29395;220;63008;-56
2023/07/01 00:56:40;;;;;;;0.40;0.40;;;;;;;15.74;77.14;96467.75;29394;216;64005;-57
2023/07/01 00:57:11;;;;;;;0.40;0.40;;;;;;;15.77;77.15;96471.75;29395;237;63009;-57
2023/07/01 00:57:43;;;;;;;0.40;0.40;;;;;;;15.76;77.22;96468.22;29395;214;63005;-59
2023/07/01 00:58:14;;;;;;;0.43;0.43;;;;;;;15.77;76.84;96471.75;29395;214;63023;-59
2023/07/01 00:58:49;;;;;;;0.40;0.40;;;;;;;15.76;77.12;96468.22;29395;209;63005;-57
2023/07/01 00:59:21;;;;;;;0.40;0.40;;;;;;;15.73;76.92;96466.16;29395;211;63009;-50
2023/07/01 00:59:53;;;;;;;0.40;0.40;;;;;;;15.67;76.85;96462.03;29394;207;64009;-59
2023/07/01 01:00:25;;;;;;;0.40;0.40;;;;;;;15.70;77.01;96467.62;29395;300;63009;-49
2023/07/01 01:00:58;;;;;;;0.40;0.40;;;;;;;15.70;77.46;96466.81;29395;202;63004;-58
2023/07/01 01:01:43;;;;;;;0.40;0.40;;;;;;;15.74;76.92;96465.03;29395;213;63018;-60
2023/07/01 01:02:21;;;;;;;0.40;0.40;;;;;;;15.75;76.78;96463.87;29395;197;63004;-58
2023/07/01 01:03:06;;;;;;;0.40;0.40;;;;;;;15.75;76.60;96470.16;29395;212;63008;-61
2023/07/01 01:03:49;;;;;;;0.40;0.40;;;;;;;15.73;77.11;96460.69;29395;198;63015;-56
2023/07/01 01:04:53;;;;;;;0.40;0.40;;;;;;;15.75;77.19;96469.34;29394;213;64014;-61
2023/07/01 01:05:39;;;;;;;0.40;0.40;;;;;;;15.75;76.60;96463.87;29395;200;63017;-59
2023/07/01 01:06:36;;;;;;;0.40;0.40;;;;;;;15.74;76.74;96463.09;29395;227;63017;-59
2023/07/01 01:07:31;;;;;;;0.40;0.40;;;;;;;15.70;76.52;96466.81;29395;309;63005;-59
2023/07/01 01:08:11;;;;;;;0.40;0.40;;;;;;;15.69;76.50;96471.50;29395;218;63009;-58
2023/07/01 01:09:12;;;;;;;0.40;0.40;;;;;;;15.70;76.57;96467.62;29417;195;63004;-59
2023/07/01 01:10:12;;;;;;;0.40;0.40;;;;;;;15.69;76.77;96471.50;29394;222;64013;-59
2023/07/01 01:10:48;;;;;;;0.40;0.40;;;;;;;15.70;76.99;96466.81;29395;246;63004;-59
2023/07/01 01:11:22;;;;;;;0.40;0.40;;;;;;;15.70;76.37;96466.81;29395;231;63009;-60
2023/07/01 01:11:56;;;;;;;0.40;0.40;;;;;;;15.70;75.99;96466.81;29394;252;64009;-60
2023/07/01 01:12:29;;;;;;;0.43;0.43;;;;;;;15.71;76.11;96463.75;29395;283;63009;-58
2023/07/01 01:13:04;;;;;;;0.40;0.40;;;;;;;15.72;76.00;96470.03;29395;207;63005;-56
2023/07/01 01:13:36;;;;;;;0.50;0.50;;;;;;;15.75;75.34;96458.41;29395;332;63009;-60
2023/07/01 01:14:13;;;;;;;0.50;0.50;;;;;;;15.84;74.70;96461.88;29395;209;63005;-57
2023/07/01 01:14:48;;;;;;;0.40;0.40;;;;;;;15.85;74.23;96468.94;29395;208;63009;-57
2023/07/01 01:15:20;;;;;;;1.08;1.08;;;;;;;15.85;75.06;96460.75;29395;226;63000;-58
2023/07/01 01:15:52;;;;;;;0.50;0.50;;;;;;;15.84;74.66;96461.88;29395;266;63009;-50
2023/07/01 01:16:25;;;;;;;0.45;0.45;;;;;;;15.81;74.91;96457.06;29394;334;64009;-49
2023/07/01 01:16:58;;;;;;;0.40;0.40;;;;;;;15.80;75.16;96462.88;29395;206;63023;-59
2023/07/01 01:17:33;;;;;;;0.40;0.40;;;;;;;15.77;75.29;96466.28;29395;233;63017;-57
2023/07/01 01:18:06;;;;;;;0.40;0.40;;;;;;;15.74;75.30;96463.09;29395;203;63008;-58
2023/07/01 01:18:42;;;;;;;0.40;0.40;;;;;;;15.75;75.56;96470.16;29395;224;63004;-60
2023/07/01 01:19:25;;;;;;;0.40;0.40;;;;;;;15.77;75.28;96461.62;29395;202;63009;-58
2023/07/01 01:20:00;;;;;;;0.40;0.40;;;;;;;15.82;74.97;96466.88;29394;279;64005;-51
2023/07/01 01:20:34;;;;;;;0.40;0.40;;;;;;;15.85;74.38;96474.41;29394;234;64013;-61
2023/07/01 01:21:06;;;;;;;0.75;0.75;;;;;;;15.85;74.64;96468.94;29395;205;63005;-58
2023/07/01 01:21:38;;;;;;;0.40;0.40;;;;;;;15.84;74.71;96466.53;29394;203;64013;-57
2023/07/01 01:22:38;;;;;;;0.40;0.40;;;;;;;15.83;74.61;96468.47;29395;215;63005;-60
2023/07/01 01:23:27;;;;;;;0.40;0.40;;;;;;;15.78;75.08;96474.16;29395;204;63009;-61
2023/07/01 01:24:07;;;;;;;0.40;0.40;;;;;;;15.75;75.67;96469.34;29395;223;63004;-59
2023/07/01 01:24:43;;;;;;;0.40;0.40;;;;;;;15.72;75.69;96475.50;29395;198;63009;-58
2023/07/01 01:25:24;;;;;;;0.40;0.40;;;;;;;15.68;76.23;96475.38;29394;196;64009;-58
2023/07/01 01:26:20;;;;;;;0.40;0.40;;;;;;;15.72;76.06;96470.03;29417;201;63008;-59
2023/07/01 01:26:54;;;;;;;0.40;0.40;;;;;;;15.69;76.26;96470.69;29395;235;63005;-59
2023/07/01 01:27:28;;;;;;;0.40;0.40;;;;;;;15.67;76.30;96473.75;29395;334;63009;-59
2023/07/01 01:28:00;;;;;;;0.40;0.40;;;;;;;15.65;76.71;96469.75;29395;292;63005;-59
2023/07/01 01:28:33;;;;;;;0.40;0.40;;;;;;;15.62;77.32;96464.97;29395;227;63009;-59
2023/07/01 01:29:06;;;;;;;0.40;0.40;;;;;;;15.59;76.94;96471.94;29395;220;63005;-50
2023/07/01 01:29:37;;;;;;;0.30;0.30;;;;;;;15.63;77.41;96466.56;29395;330;63009;-59
2023/07/01 01:30:10;;;;;;;0.40;0.40;;;;;;;15.63;77.24;96472.03;29395;241;63013;-51
2023/07/01 01:30:41;;;;;;;0.40;0.40;;;;;;;15.60;77.50;96467.22;29394;404;64013;-61
2023/07/01 01:31:14;;;;;;;0.40;0.40;;;;;;;15.58;78.05;96480.47;29395;311;63004;-60
2023/07/01 01:31:46;;;;;;;0.40;0.40;;;;;;;15.55;78.01;96475.62;29395;207;63009;-59
2023/07/01 01:32:18;;;;;;;0.40;0.40;;;;;;;15.53;78.19;96473.22;29394;284;64008;-49
2023/07/01 01:32:51;;;;;;;0.40;0.40;;;;;;;15.53;78.10;96472.44;29395;197;63008;-51
2023/07/01 01:33:25;;;;;;;0.40;0.40;;;;;;;15.54;78.39;96474.84;29395;213;63004;-58
2023/07/01 01:33:56;;;;;;;0.60;0.60;;;;;;;15.53;78.07;96472.44;29395;212;63009;-59
2023/07/01 01:34:28;;;;;;;0.40;0.40;;;;;;;15.54;77.92;96471.28;29395;337;63005;-57
2023/07/01 01:35:03;;;;;;;0.40;0.40;;;;;;;15.54;77.67;96468.56;29395;206;63009;-60
2023/07/01 01:35:34;;;;;;;0.40;0.40;;;;;;;15.54;77.73;96471.28;29394;233;64009;-59
2023/07/01 01:36:20;;;;;;;0.40;0.40;;;;;;;15.52;78.09;96465.37;29395;233;63009;-57
2023/07/01 01:37:01;;;;;;;0.40;0.40;;;;;;;15.49;78.63;96469.56;29395;337;63005;-58
2023/07/01 01:37:53;;;;;;;0.40;0.40;;;;;;;15.47;78.73;96469.09;29395;235;63014;-60
2023/07/01 01:38:29;;;;;;;0.40;0.40;;;;;;;15.48;79.22;96467.97;29395;257;63004;-58
2023/07/01 01:39:05;;;;;;;0.40;0.40;;;;;;;15.47;78.79;96469.09;29395;237;63015;-50
2023/07/01 01:39:45;;;;;;;0.40;0.40;;;;;;;15.47;78.90;96468.28;29395;238;63004;-59
2023/07/01 01:40:40;;;;;;;0.40;0.40;;;;;;;15.53;78.11;96469.69;29395;210;63008;-51
2023/07/01 01:41:19;;;;;;;0.40;0.40;;;;;;;15.52;78.13;96470.84;29394;261;64009;-59
2023/07/01 01:42:17;;;;;;;0.50;0.50;;;;;;;15.50;78.62;96473.91;29396;361;63009;-58
2023/07/01 01:42:50;;;;;;;0.45;0.45;;;;;;;15.51;78.17;96469.22;29396;265;63005;-49
2023/07/01 01:43:28;;;;;;;0.40;0.40;;;;;;;15.50;78.33;96462.16;29396;259;63005;-58
2023/07/01 01:44:07;;;;;;;0.50;0.50;;;;;;;15.45;78.36;96467.81;29395;199;64009;-60
2023/07/01 01:44:47;;;;;;;0.40;0.40;;;;;;;15.42;78.79;96467.34;29396;232;63009;-60
2023/07/01 01:45:20;;;;;;;0.40;0.40;;;;;;;15.39;79.72;96468.03;29396;218;63004;-57
2023/07/01 01:45:52;;;;;;;0.45;0.45;;;;;;;15.37;79.33;96464.81;29396;363;63009;-60
2023/07/01 01:46:26;;;;;;;0.40;0.40;;;;;;;15.37;79.34;96464.81;29396;220;63004;-59
2023/07/01 01:46:58;;;;;;;0.40;0.40;;;;;;;15.36;79.37;96465.97;29396;363;63017;-58
2023/07/01 01:47:31;;;;;;;0.40;0.40;;;;;;;15.37;79.43;96459.34;29395;221;64008;-58
2023/07/01 01:48:04;;;;;;;0.45;0.45;;;;;;;15.38;79.44;96463.69;29396;223;63008;-59
2023/07/01 01:48:37;;;;;;;0.40;0.40;;;;;;;15.47;78.86;96462.81;29396;334;63005;-59
2023/07/01 01:49:12;;;;;;;0.40;0.40;;;;;;;15.50;78.56;96462.16;29396;204;63009;-58
2023/07/01 01:49:46;;;;;;;0.40;0.40;;;;;;;15.49;78.44;96463.28;29396;203;63005;-60
2023/07/01 01:50:21;;;;;;;0.40;0.40;;;;;;;15.47;78.52;96463.63;29395;247;64009;-60
2023/07/01 01:50:54;;;;;;;0.30;0.30;;;;;;;15.44;79.12;96464.28;29396;299;63005;-61
2023/07/01 01:51:27;;;;;;;0.40;0.40;;;;;;;15.40;79.80;96469.63;29396;206;63009;-57
2023/07/01 01:52:01;;;;;;;0.47;0.47;;;;;;;15.39;79.54;96469.97;29396;222;63000;-58
2023/07/01 01:52:34;;;;;;;0.40;0.40;;;;;;;15.40;79.19;96461.41;29395;198;64013;-59
2023/07/01 01:53:06;;;;;;;0.40;0.40;;;;;;;15.40;79.25;96463.34;29396;204;63004;-59
2023/07/01 01:53:39;;;;;;;0.40;0.40;;;;;;;15.39;79.01;96462.56;29396;202;63020;-60
2023/07/01 01:54:12;;;;;;;0.40;0.40;;;;;;;15.37;79.87;96461.28;29396;216;63004;-57
2023/07/01 01:54:47;;;;;;;0.40;0.40;;;;;;;15.35;79.58;96461.62;29396;205;63009;-59
2023/07/01 01:55:22;;;;;;;0.40;0.40;;;;;;;15.33;79.78;96458.41;29396;207;63004;-59
2023/07/01 01:55:54;;;;;;;0.40;0.40;;;;;;;15.33;79.92;96465.81;29396;198;63009;-60
2023/07/01 01:56:30;;;;;;;0.40;0.40;;;;;;;15.31;79.92;96457.94;29395;206;64009;-59
2023/07/01 01:57:03;;;;;;;0.40;0.40;;;;;;;15.30;79.85;96458.28;29396;204;63022;-61
2023/07/01 01:57:35;;;;;;;0.40;0.40;;;;;;;15.29;80.16;96462.94;29396;248;63005;-51
2023/07/01 01:58:07;;;;;;;0.40;0.40;;;;;;;15.32;79.93;96456.81;29396;229;63009;-50
2023/07/01 01:58:39;;;;;;;0.45;0.45;;;;;;;15.33;79.94;96452.94;29395;227;64005;-58
2023/07/01 01:59:11;;;;;;;0.40;0.40;;;;;;;15.33;80.22;96455.69;29396;218;63009;-57
2023/07/01 01:59:44;;;;;;;0.40;0.40;;;;;;;15.31;80.01;96455.22;29396;205;63005;-59
2023/07/01 02:00:17;;;;;;;0.40;0.40;;;;;;;15.30;80.18;96459.09;29396;230;63009;-50
2023/07/01 02:00:49;;;;;;;0.40;0.40;;;;;;;15.30;80.43;96452.81;29396;202;63004;-58
2023/07/01 02:01:20;;;;;;;0.40;0.40;;;;;;;15.29;80.26;96457.47;29395;230;64013;-57
2023/07/01 02:01:52;;;;;;;0.40;0.40;;;;;;;15.29;80.40;96452.03;29396;214;63004;-59
2023/07/01 02:02:27;;;;;;;0.40;0.40;;;;;;;15.27;80.71;96458.94;29395;215;64013;-60
2023/07/01 02:02:58;;;;;;;0.40;0.40;;;;;;;15.25;80.78;96459.28;29396;237;63004;-59
2023/07/01 02:03:31;;;;;;;0.40;0.40;;;;;;;15.24;81.07;96454.97;29396;318;63009;-58
2023/07/01 02:04:03;;;;;;;0.40;0.40;;;;;;;15.25;80.91;96456.53;29396;240;63005;-59
2023/07/01 02:04:34;;;;;;;0.40;0.40;;;;;;;15.27;81.10;96458.94;29396;249;63009;-51
2023/07/01 02:05:08;;;;;;;0.40;0.40;;;;;;;15.27;80.83;96454.28;29396;234;63005;-50
2023/07/01 02:05:43;;;;;;;0.40;0.40;;;;;;;15.29;80.85;96457.47;29396;197;63009;-61
2023/07/01 02:06:14;;;;;;;0.40;0.40;;;;;;;15.28;80.62;96455.09;29395;341;64009;-57
2023/07/01 02:06:45;;;;;;;0.40;0.40;;;;;;;15.26;80.58;96455.41;29396;218;63009;-60
2023/07/01 02:07:17;;;;;;;0.40;0.40;;;;;;;15.26;80.95;96457.34;29395;208;64009;-50
2023/07/01 02:07:51;;;;;;;0.47;0.47;;;;;;;15.29;80.68;96454.75;29395;238;64013;-58
2023/07/01 02:08:22;;;;;;;0.40;0.40;;;;;;;15.30;80.68;96459.09;29396;207;63004;-51
2023/07/01 02:08:53;;;;;;;0.40;0.40;;;;;;;15.29;80.62;96462.94;29395;290;64013;-59
2023/07/01 02:09:25;;;;;;;0.40;0.40;;;;;;;15.27;80.70;96456.22;29396;199;63004;-58
2023/07/01 02:09:56;;;;;;;0.40;0.40;;;;;;;15.25;80.86;96455.75;29396;229;63009;-60
2023/07/01 02:10:28;;;;;;;0.40;0.40;;;;;;;15.23;81.04;96453.38;29396;204;63004;-59
2023/07/01 02:10:59;;;;;;;0.40;0.40;;;;;;;15.23;81.01;96453.38;29396;252;63009;-59
2023/07/01 02:11:31;;;;;;;0.40;0.40;;;;;;;15.22;81.16;96451.78;29396;239;63005;-58
2023/07/01 02:12:04;;;;;;;0.40;0.40;;;;;;;15.20;81.26;96448.56;29395;254;64014;-61
2023/07/01 02:12:37;;;;;;;0.40;0.40;;;;;;;15.18;81.41;96453.56;29396;232;63005;-59
2023/07/01 02:13:08;;;;;;;0.40;0.40;;;;;;;15.16;81.73;96453.09;29396;205;63009;-61
2023/07/01 02:13:39;;;;;;;0.40;0.40;;;;;;;15.14;81.79;96455.38;29395;206;64005;-58
2023/07/01 02:14:10;;;;;;;0.40;0.40;;;;;;;15.17;81.92;96448.44;29396;316;63009;-59
2023/07/01 02:14:42;;;;;;;0.40;0.40;;;;;;;15.18;81.67;96445.38;29396;203;63000;-60
2023/07/01 02:15:13;;;;;;;0.40;0.40;;;;;;;15.19;81.66;96443.44;29396;203;63009;-59
2023/07/01 02:15:44;;;;;;;0.40;0.40;;;;;;;15.19;81.75;96451.63;29395;203;64009;-51
2023/07/01 02:16:16;;;;;;;0.40;0.40;;;;;;;15.18;81.99;96444.56;29396;212;63009;-60
2023/07/01 02:16:49;;;;;;;0.40;0.40;;;;;;;15.22;81.44;96446.31;29396;233;63004;-59
2023/07/01 02:17:20;;;;;;;0.50;0.50;;;;;;;15.21;81.42;96439.25;29396;234;63009;-58
2023/07/01 02:17:53;;;;;;;0.40;0.40;;;;;;;15.21;81.18;96447.44;29395;205;64004;-59
2023/07/01 02:18:25;;;;;;;0.40;0.40;;;;;;;15.19;81.32;96446.97;29395;225;64014;-57
2023/07/01 02:18:56;;;;;;;0.50;0.50;;;;;;;15.17;81.56;96449.22;29396;256;63005;-59
2023/07/01 02:19:28;;;;;;;0.40;0.40;;;;;;;15.16;81.76;96442.16;29395;228;64014;-59
2023/07/01 02:19:59;;;;;;;0.40;0.40;;;;;;;15.16;81.89;96446.84;29396;204;63005;-61
2023/07/01 02:20:31;;;;;;;0.40;0.40;;;;;;;15.14;81.54;96441.69;29396;341;63009;-57
2023/07/01 02:21:04;;;;;;;0.40;0.40;;;;;;;15.14;82.15;96444.44;29396;236;63005;-59
2023/07/01 02:21:35;;;;;;;0.40;0.40;;;;;;;15.13;81.98;96437.38;29396;234;63009;-59
2023/07/01 02:22:06;;;;;;;0.40;0.40;;;;;;;15.12;81.78;96438.50;29396;203;63005;-60
2023/07/01 02:22:38;;;;;;;0.40;0.40;;;;;;;15.12;82.07;96440.44;29396;279;63017;-59
2023/07/01 02:23:09;;;;;;;0.40;0.40;;;;;;;15.13;81.78;96437.38;29396;202;63004;-62
2023/07/01 02:23:40;;;;;;;0.40;0.40;;;;;;;15.13;81.58;96436.56;29396;202;63019;-60
2023/07/01 02:24:11;;;;;;;0.40;0.40;;;;;;;15.12;81.74;96441.22;29395;196;64009;-58
2023/07/01 02:24:43;;;;;;;0.40;0.40;;;;;;;15.11;81.56;96436.91;29396;240;63009;-60
2023/07/01 02:25:15;;;;;;;1.23;1.23;;;;;;;15.12;81.94;96446.69;29396;233;63004;-59
2023/07/01 02:25:47;;;;;;;0.40;0.40;;;;;;;15.12;82.11;96435.75;29397;210;63008;-58
2023/07/01 02:26:18;;;;;;;0.40;0.40;;;;;;;15.13;82.19;96436.56;29396;234;64009;-58
2023/07/01 02:26:50;;;;;;;0.40;0.40;;;;;;;15.14;81.75;96444.44;29397;217;63009;-59
2023/07/01 02:27:22;;;;;;;0.40;0.40;;;;;;;15.12;81.90;96434.97;29397;204;63005;-59
2023/07/01 02:27:53;;;;;;;0.40;0.40;;;;;;;15.11;81.79;96427.91;29397;239;63009;-59
2023/07/01 02:28:24;;;;;;;0.40;0.40;;;;;;;15.08;82.34;96441.09;29397;218;63005;-60
2023/07/01 02:28:56;;;;;;;0.40;0.40;;;;;;;15.07;82.42;96438.69;29396;222;64013;-50
2023/07/01 02:29:27;;;;;;;0.40;0.40;;;;;;;15.06;82.17;96437.09;29396;245;64009;-58
2023/07/01 02:29:59;;;;;;;0.40;0.40;;;;;;;15.05;82.36;96440.94;29397;196;63009;-59
2023/07/01 02:30:31;;;;;;;0.40;0.40;;;;;;;15.04;82.54;96437.41;29397;259;63004;-60
2023/07/01 02:31:03;;;;;;;0.40;0.40;;;;;;;15.02;82.74;96436.16;29397;218;63009;-60
2023/07/01 02:31:38;;;;;;;0.40;0.40;;;;;;;15.01;82.77;96440.00;29396;239;64009;-60
2023/07/01 02:32:10;;;;;;;0.50;0.50;;;;;;;15.00;82.74;96435.69;29397;202;63015;-58
2023/07/01 02:32:42;;;;;;;0.45;0.45;;;;;;;15.00;83.12;96435.69;29396;331;64008;-60
2023/07/01 02:33:13;;;;;;;0.40;0.40;;;;;;;14.99;83.08;96437.62;29397;244;63008;-58
2023/07/01 02:33:45;;;;;;;0.40;0.40;;;;;;;14.99;83.23;96437.62;29397;318;63011;-59
2023/07/01 02:34:27;;;;;;;0.40;0.40;;;;;;;15.00;83.09;96441.94;29397;233;63009;-59
2023/07/01 02:34:58;;;;;;;0.40;0.40;;;;;;;14.99;83.19;96436.81;29397;225;63005;-60
2023/07/01 02:35:31;;;;;;;0.40;0.40;;;;;;;15.01;83.17;96440.00;29397;211;63009;-59
2023/07/01 02:36:03;;;;;;;0.40;0.40;;;;;;;15.01;83.32;96434.56;29397;211;63005;-59
2023/07/01 02:36:35;;;;;;;0.40;0.40;;;;;;;15.04;83.06;96442.09;29397;216;63009;-59
2023/07/01 02:37:06;;;;;;;0.40;0.40;;;;;;;15.07;82.45;96430.50;29397;222;63004;-57
2023/07/01 02:37:38;;;;;;;0.40;0.40;;;;;;;15.07;82.36;96435.97;29397;348;63009;-58
2023/07/01 02:38:09;;;;;;;0.37;0.37;;;;;;;15.07;82.26;96438.69;29396;238;64009;-60
2023/07/01 02:38:40;;;;;;;0.40;0.40;;;;;;;15.07;82.23;96438.69;29397;321;63009;-58
2023/07/01 02:39:12;;;;;;;0.40;0.40;;;;;;;15.06;82.39;96446.09;29396;218;63004;-59
2023/07/01 02:39:45;;;;;;;0.40;0.40;;;;;;;15.07;82.16;96439.50;29396;315;63004;-60
2023/07/01 02:40:17;;;;;;;0.40;0.40;;;;;;;15.04;82.37;96439.34;29396;218;63004;-60
2023/07/01 02:40:49;;;;;;;0.40;0.40;;;;;;;15.02;82.35;96436.94;29396;221;63008;-58
2023/07/01 02:41:20;;;;;;;0.40;0.40;;;;;;;15.04;82.66;96445.62;29395;384;64009;-60
2023/07/01 02:41:52;;;;;;;0.40;0.40;;;;;;;15.03;82.56;96444.03;29397;277;63027;-59